Airfield :







YOU CAN JOIN US ON...

 
LOGIN :

Register | Disclaimer

   EN    FR    IT 

 









Legend :    VFR   Marginal VFR   IFR   Intensive IFR   Very Intensive IFR
Visi :
Ceiling :
>= 8 km
>= 3000ft
5 to 8 km
1000 to 3000 ft
1500m to 5 km
500 to 1000 ft
800 to 1500m
200 to 500 ft
< 800m
< 200 ft
Symbols :   Thunderstorms  Fog  Heavy snow  Heavy precipitations  Wind > 20 kt






- Airport Elevation : 489 ft


KHUL - Houlton International

CURRENT METAR :
  • 180953Z AUTO 20005KT 10SM CLR 12/07 A2991 RMK AO2 SLP129 T01170072

EXPIRED METARs :
  • 180853Z AUTO 19005KT 10SM CLR 09/07 A2990 RMK AO2 SLP126 T00890067 53008
  • 180753Z AUTO 20005KT 10SM CLR 11/07 A2988 RMK AO2 SLP119 T01060072

TAF KHUL
Valid from the 18 at 09:00 until the 19 at 06:00 UTC


180909Z 1809/1906 00000KT P6SM SKC
FM181200 21008KT P6SM FEW100
FM182200 20009KT P6SM FEW100
KZBW FIR / North America



MET'MAP, your aeronautical weather chart ! - Copyright ORBIFLY December 2007 - Disclaimer

ORBIFLY MET'MAP TEAM :

Programming & Development : Alexandra Zaïnal
Concept & original design : Baudouin d'Aumeries
Assistance for programming : Marc-Olivier Méhu
Technical & hardware support : Manuel Goepfert

Contact : metmap@orbifly.com




SOURCES & CREDITS :

   NOAA